Falcon, MO (65470)

2:55 AM CDT on July 01, 2015 (GMT -0500)
Evening Shade, NW Texas Cnty, MO | | Change Station
CLOSE
Current Station
Personal Weather Station
Location: Plato, MO
Elevation: 1375 ft
Nearby Weather Stations

Elev 1375 ft 37.56 °N, 92.14 °W | Updated 37 seconds ago

Overcast
Overcast
74.7 °F
Feels Like 74 °F
N
0.0
Wind Variable Wind from ENE
Gusts 0.0 mph

Today
High -- | Low -- °F
--% Chance of Precip.
Yesterday
High -- | Low -- °F
Precip. -- in
5:51 AM 8:34 PM
Waxing Gibbous, 99% visible
Pressure 29.92 in
Visibility 10.0 miles
Clouds Few 4300 ft
Mostly Cloudy 9000 ft
Overcast 12000 ft
Heat Index 74 °F
Dew Point 71 °F
Humidity 88%
Rainfall 0.00 in
Snow Depth Not available.
UV 0.0 out of 12
Pollen 4.10 out of 12
Air Quality Not available.
Flu Activity Not available.
SPECI KTBN 010705Z AUTO 10002KT 10SM FEW043 BKN090 OVC120 22/22 A2992 RMK AO2 RAE02DZB02E05

More Conditions Fewer Conditions

Pressure 29.92 in
Visibility 10.0 miles
Clouds Few 4300 ft
Mostly Cloudy 9000 ft
Overcast 12000 ft
Heat Index 74 °F
Dew Point 71 °F
Humidity 88%
Rainfall 0.00 in
Snow Depth Not available.
UV 0.0 out of 12
Pollen 4.10 out of 12
Air Quality Not available.
Flu Activity Not available.
SPECI KTBN 010705Z AUTO 10002KT 10SM FEW043 BKN090 OVC120 22/22 A2992 RMK AO2 RAE02DZB02E05

More Conditions Fewer Conditions

10-Day Weather Forecast

×

Almanac

Astronomy

Jul. 01, 2015 Rise Set
Actual Time
Civil Twilight
Nautical Twilight
Astronomical Twilight
Moon
Length of Visible Light
Length of Day
Tomorrow will be .
, % of the Moon is Illuminated

Today's Extremes

State Highs State Lows

Community

WunderPhotos

Upload Photos

1,834,164 photos uploaded!

WunderBlogs® & News

Nearby

Air Quality

  Air Quality AQ Index Pollutant
Not available.

Snow Depth

Station Depth Elevation

Earthquake Activity

City Distance Mag. Time & Date
Minimum magnitude displayed is 2.5.

Coastal Water Temperatures

Place Temperature

Stations

Nearby Weather Stations

Station Location Temp. Windchill Dew Point Humidity Wind Precip. Elev Updated Type